sensor_id;sensor_type;location;lat;lon;timestamp;P1;durP1;ratioP1;P2;durP2;ratioP2
37873;SDS011;23709;48.078;11.684;2024-03-23T00:53:53;13.15;;;5.85;;
37873;SDS011;23709;48.078;11.684;2024-03-23T00:56:24;11.85;;;5.63;;
37873;SDS011;23709;48.078;11.684;2024-03-23T00:58:56;11.40;;;5.10;;
37873;SDS011;23709;48.078;11.684;2024-03-23T01:01:28;15.48;;;5.70;;
37873;SDS011;23709;48.078;11.684;2024-03-23T01:04:00;7.80;;;4.93;;
37873;SDS011;23709;48.078;11.684;2024-03-23T01:06:31;7.13;;;4.32;;
37873;SDS011;23709;48.078;11.684;2024-03-23T01:09:03;5.78;;;4.32;;
37873;SDS011;23709;48.078;11.684;2024-03-23T01:11:34;9.13;;;4.43;;
37873;SDS011;23709;48.078;11.684;2024-03-23T01:14:06;8.75;;;4.38;;
37873;SDS011;23709;48.078;11.684;2024-03-23T01:16:38;7.70;;;4.60;;
37873;SDS011;23709;48.078;11.684;2024-03-23T01:19:09;9.00;;;4.30;;
37873;SDS011;23709;48.078;11.684;2024-03-23T01:21:42;6.63;;;3.65;;
37873;SDS011;23709;48.078;11.684;2024-03-23T01:24:14;7.45;;;3.53;;
37873;SDS011;23709;48.078;11.684;2024-03-23T01:26:46;6.75;;;3.67;;
37873;SDS011;23709;48.078;11.684;2024-03-23T01:29:17;9.38;;;3.95;;
37873;SDS011;23709;48.078;11.684;2024-03-23T01:31:49;7.72;;;3.50;;
37873;SDS011;23709;48.078;11.684;2024-03-23T01:34:20;7.50;;;4.13;;
37873;SDS011;23709;48.078;11.684;2024-03-23T01:36:52;6.70;;;4.38;;
37873;SDS011;23709;48.078;11.684;2024-03-23T01:39:24;8.13;;;5.28;;
37873;SDS011;23709;48.078;11.684;2024-03-23T01:41:55;11.23;;;4.63;;
37873;SDS011;23709;48.078;11.684;2024-03-23T01:44:27;16.45;;;6.38;;
37873;SDS011;23709;48.078;11.684;2024-03-23T01:46:58;12.05;;;5.25;;
37873;SDS011;23709;48.078;11.684;2024-03-23T01:49:30;17.00;;;7.65;;
37873;SDS011;23709;48.078;11.684;2024-03-23T01:52:02;11.18;;;6.00;;
37873;SDS011;23709;48.078;11.684;2024-03-23T01:54:34;17.30;;;6.80;;
37873;SDS011;23709;48.078;11.684;2024-03-23T01:57:06;12.13;;;5.68;;
37873;SDS011;23709;48.078;11.684;2024-03-23T01:59:38;9.63;;;4.97;;
37873;SDS011;23709;48.078;11.684;2024-03-23T02:02:10;8.30;;;5.15;;
37873;SDS011;23709;48.078;11.684;2024-03-23T02:04:42;8.40;;;4.65;;
37873;SDS011;23709;48.078;11.684;2024-03-23T02:07:13;6.68;;;4.00;;
37873;SDS011;23709;48.078;11.684;2024-03-23T02:09:45;6.32;;;4.28;;
37873;SDS011;23709;48.078;11.684;2024-03-23T02:12:17;7.22;;;3.90;;
37873;SDS011;23709;48.078;11.684;2024-03-23T02:14:49;5.30;;;3.83;;
37873;SDS011;23709;48.078;11.684;2024-03-23T02:17:21;5.35;;;3.53;;
37873;SDS011;23709;48.078;11.684;2024-03-23T02:19:52;5.75;;;3.67;;
37873;SDS011;23709;48.078;11.684;2024-03-23T02:22:24;7.72;;;3.50;;
37873;SDS011;23709;48.078;11.684;2024-03-23T02:24:55;3.88;;;3.00;;
37873;SDS011;23709;48.078;11.684;2024-03-23T02:27:27;4.85;;;3.50;;
37873;SDS011;23709;48.078;11.684;2024-03-23T02:29:58;5.13;;;3.10;;
37873;SDS011;23709;48.078;11.684;2024-03-23T02:32:31;5.35;;;3.30;;
37873;SDS011;23709;48.078;11.684;2024-03-23T02:35:02;5.07;;;2.97;;
37873;SDS011;23709;48.078;11.684;2024-03-23T02:37:35;7.47;;;3.13;;
37873;SDS011;23709;48.078;11.684;2024-03-23T02:40:07;7.35;;;3.55;;
37873;SDS011;23709;48.078;11.684;2024-03-23T02:42:39;4.40;;;3.15;;
37873;SDS011;23709;48.078;11.684;2024-03-23T02:45:11;6.38;;;3.30;;
37873;SDS011;23709;48.078;11.684;2024-03-23T02:47:42;4.72;;;3.10;;
37873;SDS011;23709;48.078;11.684;2024-03-23T02:50:15;6.45;;;2.95;;
37873;SDS011;23709;48.078;11.684;2024-03-23T02:52:46;9.20;;;3.10;;
37873;SDS011;23709;48.078;11.684;2024-03-23T02:55:18;6.05;;;3.10;;
37873;SDS011;23709;48.078;11.684;2024-03-23T02:57:49;8.02;;;2.65;;
37873;SDS011;23709;48.078;11.684;2024-03-23T03:00:21;4.53;;;2.80;;
37873;SDS011;23709;48.078;11.684;2024-03-23T03:02:52;6.43;;;3.38;;
37873;SDS011;23709;48.078;11.684;2024-03-23T03:05:24;5.97;;;2.95;;
37873;SDS011;23709;48.078;11.684;2024-03-23T03:07:55;5.40;;;3.05;;
37873;SDS011;23709;48.078;11.684;2024-03-23T03:10:27;3.75;;;2.63;;
37873;SDS011;23709;48.078;11.684;2024-03-23T03:12:59;4.32;;;3.20;;
37873;SDS011;23709;48.078;11.684;2024-03-23T03:15:31;5.25;;;3.05;;
37873;SDS011;23709;48.078;11.684;2024-03-23T03:18:03;6.03;;;3.22;;
37873;SDS011;23709;48.078;11.684;2024-03-23T03:20:37;6.57;;;3.22;;
37873;SDS011;23709;48.078;11.684;2024-03-23T03:23:10;5.90;;;2.88;;
37873;SDS011;23709;48.078;11.684;2024-03-23T03:25:42;6.88;;;3.00;;
37873;SDS011;23709;48.078;11.684;2024-03-23T03:28:14;4.82;;;3.13;;
37873;SDS011;23709;48.078;11.684;2024-03-23T03:30:45;5.75;;;2.90;;
37873;SDS011;23709;48.078;11.684;2024-03-23T03:33:17;4.85;;;2.72;;
37873;SDS011;23709;48.078;11.684;2024-03-23T03:35:48;7.15;;;3.28;;
37873;SDS011;23709;48.078;11.684;2024-03-23T03:38:20;4.60;;;2.83;;
37873;SDS011;23709;48.078;11.684;2024-03-23T03:40:52;4.00;;;2.92;;
37873;SDS011;23709;48.078;11.684;2024-03-23T03:43:24;5.95;;;2.63;;
37873;SDS011;23709;48.078;11.684;2024-03-23T03:45:56;5.13;;;3.00;;
37873;SDS011;23709;48.078;11.684;2024-03-23T03:48:28;5.13;;;3.22;;
37873;SDS011;23709;48.078;11.684;2024-03-23T03:51:00;5.45;;;3.28;;
37873;SDS011;23709;48.078;11.684;2024-03-23T03:53:31;4.45;;;2.95;;
37873;SDS011;23709;48.078;11.684;2024-03-23T03:56:03;7.22;;;2.78;;
37873;SDS011;23709;48.078;11.684;2024-03-23T03:58:34;4.88;;;2.83;;
37873;SDS011;23709;48.078;11.684;2024-03-23T04:01:07;5.50;;;3.20;;
37873;SDS011;23709;48.078;11.684;2024-03-23T04:03:38;6.80;;;3.08;;
37873;SDS011;23709;48.078;11.684;2024-03-23T04:06:20;5.95;;;3.17;;
37873;SDS011;23709;48.078;11.684;2024-03-23T04:08:52;4.00;;;2.40;;
37873;SDS011;23709;48.078;11.684;2024-03-23T04:11:23;3.00;;;2.67;;
37873;SDS011;23709;48.078;11.684;2024-03-23T04:13:55;6.00;;;3.22;;
37873;SDS011;23709;48.078;11.684;2024-03-23T04:16:27;4.72;;;3.38;;
37873;SDS011;23709;48.078;11.684;2024-03-23T04:18:58;3.58;;;2.95;;
37873;SDS011;23709;48.078;11.684;2024-03-23T04:21:30;5.88;;;3.13;;
37873;SDS011;23709;48.078;11.684;2024-03-23T04:24:01;4.82;;;3.03;;
37873;SDS011;23709;48.078;11.684;2024-03-23T04:26:43;4.80;;;3.03;;
37873;SDS011;23709;48.078;11.684;2024-03-23T04:29:15;5.32;;;3.22;;
37873;SDS011;23709;48.078;11.684;2024-03-23T04:31:47;7.22;;;3.28;;
37873;SDS011;23709;48.078;11.684;2024-03-23T04:34:18;4.10;;;2.90;;
37873;SDS011;23709;48.078;11.684;2024-03-23T04:36:50;4.90;;;3.08;;
37873;SDS011;23709;48.078;11.684;2024-03-23T04:39:21;6.03;;;3.13;;
37873;SDS011;23709;48.078;11.684;2024-03-23T04:41:53;4.00;;;2.50;;
37873;SDS011;23709;48.078;11.684;2024-03-23T04:44:24;3.10;;;2.50;;
37873;SDS011;23709;48.078;11.684;2024-03-23T04:47:00;5.20;;;2.70;;
37873;SDS011;23709;48.078;11.684;2024-03-23T04:49:31;7.07;;;3.33;;
37873;SDS011;23709;48.078;11.684;2024-03-23T04:52:04;8.63;;;3.28;;
37873;SDS011;23709;48.078;11.684;2024-03-23T04:54:35;3.08;;;2.30;;
37873;SDS011;23709;48.078;11.684;2024-03-23T04:57:07;4.57;;;2.78;;
37873;SDS011;23709;48.078;11.684;2024-03-23T04:59:38;4.28;;;2.45;;
37873;SDS011;23709;48.078;11.684;2024-03-23T05:02:10;4.15;;;2.95;;
37873;SDS011;23709;48.078;11.684;2024-03-23T05:04:41;10.48;;;2.38;;
37873;SDS011;23709;48.078;11.684;2024-03-23T05:07:13;4.65;;;2.95;;
37873;SDS011;23709;48.078;11.684;2024-03-23T05:09:45;3.45;;;2.53;;
37873;SDS011;23709;48.078;11.684;2024-03-23T05:12:18;3.93;;;2.67;;
37873;SDS011;23709;48.078;11.684;2024-03-23T05:14:50;4.70;;;2.42;;
37873;SDS011;23709;48.078;11.684;2024-03-23T05:17:23;4.63;;;2.70;;
37873;SDS011;23709;48.078;11.684;2024-03-23T05:19:55;5.05;;;2.33;;
37873;SDS011;23709;48.078;11.684;2024-03-23T05:22:26;4.22;;;2.50;;
37873;SDS011;23709;48.078;11.684;2024-03-23T05:24:58;3.92;;;2.47;;
37873;SDS011;23709;48.078;11.684;2024-03-23T05:27:29;3.63;;;2.30;;
37873;SDS011;23709;48.078;11.684;2024-03-23T05:30:01;3.00;;;2.45;;
37873;SDS011;23709;48.078;11.684;2024-03-23T05:32:34;4.15;;;2.25;;
37873;SDS011;23709;48.078;11.684;2024-03-23T05:35:06;4.55;;;2.80;;
37873;SDS011;23709;48.078;11.684;2024-03-23T05:37:38;3.30;;;2.38;;
37873;SDS011;23709;48.078;11.684;2024-03-23T05:40:10;6.00;;;2.90;;
37873;SDS011;23709;48.078;11.684;2024-03-23T05:42:43;4.28;;;2.30;;
37873;SDS011;23709;48.078;11.684;2024-03-23T05:45:15;3.13;;;2.10;;
37873;SDS011;23709;48.078;11.684;2024-03-23T05:47:49;5.80;;;2.28;;
37873;SDS011;23709;48.078;11.684;2024-03-23T05:50:21;4.40;;;2.30;;
37873;SDS011;23709;48.078;11.684;2024-03-23T05:52:53;4.97;;;2.22;;
37873;SDS011;23709;48.078;11.684;2024-03-23T05:55:25;3.55;;;2.20;;
37873;SDS011;23709;48.078;11.684;2024-03-23T05:57:57;3.30;;;2.00;;
37873;SDS011;23709;48.078;11.684;2024-03-23T06:00:30;4.53;;;2.40;;
37873;SDS011;23709;48.078;11.684;2024-03-23T06:03:02;3.45;;;2.42;;
37873;SDS011;23709;48.078;11.684;2024-03-23T06:05:34;3.45;;;2.17;;
37873;SDS011;23709;48.078;11.684;2024-03-23T06:08:05;2.85;;;2.00;;
37873;SDS011;23709;48.078;11.684;2024-03-23T06:10:40;5.00;;;2.10;;
37873;SDS011;23709;48.078;11.684;2024-03-23T06:13:12;3.95;;;2.50;;
37873;SDS011;23709;48.078;11.684;2024-03-23T06:15:45;3.97;;;1.95;;
37873;SDS011;23709;48.078;11.684;2024-03-23T06:18:17;3.97;;;2.40;;
37873;SDS011;23709;48.078;11.684;2024-03-23T06:20:49;4.28;;;2.28;;
37873;SDS011;23709;48.078;11.684;2024-03-23T06:23:20;3.65;;;2.55;;
37873;SDS011;23709;48.078;11.684;2024-03-23T06:25:52;4.32;;;2.75;;
37873;SDS011;23709;48.078;11.684;2024-03-23T06:28:24;5.63;;;2.30;;
37873;SDS011;23709;48.078;11.684;2024-03-23T06:30:56;3.03;;;2.50;;
37873;SDS011;23709;48.078;11.684;2024-03-23T06:33:27;3.08;;;1.95;;
37873;SDS011;23709;48.078;11.684;2024-03-23T06:35:59;4.35;;;1.80;;
37873;SDS011;23709;48.078;11.684;2024-03-23T06:38:30;5.57;;;1.83;;
37873;SDS011;23709;48.078;11.684;2024-03-23T06:41:02;4.40;;;1.85;;
37873;SDS011;23709;48.078;11.684;2024-03-23T06:43:34;6.90;;;2.00;;
37873;SDS011;23709;48.078;11.684;2024-03-23T06:46:06;4.05;;;1.90;;
37873;SDS011;23709;48.078;11.684;2024-03-23T06:48:38;3.78;;;1.60;;
37873;SDS011;23709;48.078;11.684;2024-03-23T06:51:10;2.42;;;1.80;;
37873;SDS011;23709;48.078;11.684;2024-03-23T06:53:41;4.97;;;2.00;;
37873;SDS011;23709;48.078;11.684;2024-03-23T06:56:13;4.50;;;1.50;;
37873;SDS011;23709;48.078;11.684;2024-03-23T06:58:44;2.28;;;1.80;;
37873;SDS011;23709;48.078;11.684;2024-03-23T07:01:16;3.17;;;1.77;;
37873;SDS011;23709;48.078;11.684;2024-03-23T07:03:47;2.25;;;1.75;;
37873;SDS011;23709;48.078;11.684;2024-03-23T07:06:19;3.58;;;1.90;;
37873;SDS011;23709;48.078;11.684;2024-03-23T07:08:51;5.28;;;1.63;;
37873;SDS011;23709;48.078;11.684;2024-03-23T07:11:23;2.78;;;1.67;;
37873;SDS011;23709;48.078;11.684;2024-03-23T07:13:55;3.80;;;1.50;;
37873;SDS011;23709;48.078;11.684;2024-03-23T07:16:27;3.30;;;1.40;;
37873;SDS011;23709;48.078;11.684;2024-03-23T07:18:58;4.35;;;1.75;;
37873;SDS011;23709;48.078;11.684;2024-03-23T07:21:30;2.65;;;1.50;;
37873;SDS011;23709;48.078;11.684;2024-03-23T07:24:02;3.20;;;1.60;;
37873;SDS011;23709;48.078;11.684;2024-03-23T07:26:34;2.13;;;1.50;;
37873;SDS011;23709;48.078;11.684;2024-03-23T07:29:06;3.13;;;1.95;;
37873;SDS011;23709;48.078;11.684;2024-03-23T07:31:38;3.30;;;1.88;;
37873;SDS011;23709;48.078;11.684;2024-03-23T07:34:10;5.47;;;1.90;;
37873;SDS011;23709;48.078;11.684;2024-03-23T07:36:41;2.78;;;1.33;;
37873;SDS011;23709;48.078;11.684;2024-03-23T07:39:13;6.13;;;2.05;;
37873;SDS011;23709;48.078;11.684;2024-03-23T07:41:45;2.58;;;1.98;;
37873;SDS011;23709;48.078;11.684;2024-03-23T07:44:17;3.58;;;1.60;;
37873;SDS011;23709;48.078;11.684;2024-03-23T07:46:48;4.00;;;1.52;;
37873;SDS011;23709;48.078;11.684;2024-03-23T07:49:20;6.53;;;2.25;;
37873;SDS011;23709;48.078;11.684;2024-03-23T07:51:51;6.13;;;2.47;;
37873;SDS011;23709;48.078;11.684;2024-03-23T07:54:23;6.80;;;2.38;;
37873;SDS011;23709;48.078;11.684;2024-03-23T07:56:54;8.57;;;2.67;;
37873;SDS011;23709;48.078;11.684;2024-03-23T07:59:26;5.82;;;2.83;;
37873;SDS011;23709;48.078;11.684;2024-03-23T08:02:01;3.78;;;2.75;;
37873;SDS011;23709;48.078;11.684;2024-03-23T08:04:33;3.28;;;2.45;;
37873;SDS011;23709;48.078;11.684;2024-03-23T08:07:04;4.18;;;2.53;;
37873;SDS011;23709;48.078;11.684;2024-03-23T08:09:36;4.57;;;2.13;;
37873;SDS011;23709;48.078;11.684;2024-03-23T08:12:07;6.70;;;2.35;;
37873;SDS011;23709;48.078;11.684;2024-03-23T08:14:40;8.27;;;2.33;;
37873;SDS011;23709;48.078;11.684;2024-03-23T08:17:12;5.37;;;2.03;;
37873;SDS011;23709;48.078;11.684;2024-03-23T08:19:46;2.97;;;1.50;;
37873;SDS011;23709;48.078;11.684;2024-03-23T08:22:19;5.82;;;2.40;;
37873;SDS011;23709;48.078;11.684;2024-03-23T08:24:51;7.10;;;2.13;;
37873;SDS011;23709;48.078;11.684;2024-03-23T08:27:25;4.15;;;2.53;;
37873;SDS011;23709;48.078;11.684;2024-03-23T08:29:59;6.40;;;2.47;;
37873;SDS011;23709;48.078;11.684;2024-03-23T08:32:31;7.85;;;3.30;;
37873;SDS011;23709;48.078;11.684;2024-03-23T08:35:03;5.88;;;2.90;;
37873;SDS011;23709;48.078;11.684;2024-03-23T08:37:35;7.63;;;3.85;;
37873;SDS011;23709;48.078;11.684;2024-03-23T08:40:07;5.20;;;3.10;;
37873;SDS011;23709;48.078;11.684;2024-03-23T08:42:39;7.50;;;3.72;;
37873;SDS011;23709;48.078;11.684;2024-03-23T08:45:10;9.77;;;3.58;;
37873;SDS011;23709;48.078;11.684;2024-03-23T08:47:42;6.97;;;3.75;;
37873;SDS011;23709;48.078;11.684;2024-03-23T08:50:14;6.45;;;3.50;;
37873;SDS011;23709;48.078;11.684;2024-03-23T08:52:45;5.88;;;3.13;;
37873;SDS011;23709;48.078;11.684;2024-03-23T08:55:17;7.35;;;3.50;;
37873;SDS011;23709;48.078;11.684;2024-03-23T08:57:49;6.47;;;3.22;;
37873;SDS011;23709;48.078;11.684;2024-03-23T09:00:20;4.28;;;3.22;;
37873;SDS011;23709;48.078;11.684;2024-03-23T09:02:53;5.28;;;3.45;;
37873;SDS011;23709;48.078;11.684;2024-03-23T09:05:25;7.53;;;4.07;;
37873;SDS011;23709;48.078;11.684;2024-03-23T09:07:58;6.78;;;4.20;;
37873;SDS011;23709;48.078;11.684;2024-03-23T09:10:30;6.72;;;4.55;;
37873;SDS011;23709;48.078;11.684;2024-03-23T09:13:02;6.60;;;4.20;;
37873;SDS011;23709;48.078;11.684;2024-03-23T09:15:34;7.88;;;4.47;;
37873;SDS011;23709;48.078;11.684;2024-03-23T09:18:06;6.38;;;4.72;;
37873;SDS011;23709;48.078;11.684;2024-03-23T09:20:37;8.75;;;4.90;;
37873;SDS011;23709;48.078;11.684;2024-03-23T09:23:09;7.72;;;4.90;;
37873;SDS011;23709;48.078;11.684;2024-03-23T09:25:41;7.70;;;4.78;;
37873;SDS011;23709;48.078;11.684;2024-03-23T09:28:12;9.02;;;5.25;;
37873;SDS011;23709;48.078;11.684;2024-03-23T09:30:44;5.43;;;4.18;;
37873;SDS011;23709;48.078;11.684;2024-03-23T09:33:15;8.65;;;4.85;;
37873;SDS011;23709;48.078;11.684;2024-03-23T09:35:49;8.35;;;5.40;;
37873;SDS011;23709;48.078;11.684;2024-03-23T09:38:21;10.65;;;4.90;;
37873;SDS011;23709;48.078;11.684;2024-03-23T09:40:53;9.27;;;5.25;;
37873;SDS011;23709;48.078;11.684;2024-03-23T09:43:24;7.05;;;4.10;;
37873;SDS011;23709;48.078;11.684;2024-03-23T09:45:56;6.05;;;3.70;;
37873;SDS011;23709;48.078;11.684;2024-03-23T09:48:28;4.32;;;2.80;;
37873;SDS011;23709;48.078;11.684;2024-03-23T09:51:00;3.75;;;2.30;;
37873;SDS011;23709;48.078;11.684;2024-03-23T09:56:05;2.10;;;1.75;;
37873;SDS011;23709;48.078;11.684;2024-03-23T09:58:39;2.95;;;1.70;;
37873;SDS011;23709;48.078;11.684;2024-03-23T10:01:12;2.17;;;1.80;;
37873;SDS011;23709;48.078;11.684;2024-03-23T10:03:44;3.13;;;2.00;;
37873;SDS011;23709;48.078;11.684;2024-03-23T10:06:16;3.33;;;2.27;;
37873;SDS011;23709;48.078;11.684;2024-03-23T10:08:53;2.13;;;1.60;;
37873;SDS011;23709;48.078;11.684;2024-03-23T10:11:25;5.82;;;2.28;;
37873;SDS011;23709;48.078;11.684;2024-03-23T10:14:00;2.78;;;1.88;;
37873;SDS011;23709;48.078;11.684;2024-03-23T10:16:31;2.55;;;1.80;;
37873;SDS011;23709;48.078;11.684;2024-03-23T10:19:03;2.60;;;1.73;;
37873;SDS011;23709;48.078;11.684;2024-03-23T10:21:35;3.53;;;1.50;;
37873;SDS011;23709;48.078;11.684;2024-03-23T10:24:09;2.85;;;1.60;;
37873;SDS011;23709;48.078;11.684;2024-03-23T10:26:41;3.38;;;1.77;;
37873;SDS011;23709;48.078;11.684;2024-03-23T10:29:13;4.07;;;2.00;;
37873;SDS011;23709;48.078;11.684;2024-03-23T10:31:47;3.03;;;1.63;;
37873;SDS011;23709;48.078;11.684;2024-03-23T10:34:26;3.45;;;1.80;;
37873;SDS011;23709;48.078;11.684;2024-03-23T10:36:58;2.13;;;1.40;;
37873;SDS011;23709;48.078;11.684;2024-03-23T10:39:32;3.88;;;1.60;;
37873;SDS011;23709;48.078;11.684;2024-03-23T10:42:05;3.67;;;1.92;;
37873;SDS011;23709;48.078;11.684;2024-03-23T10:44:38;2.58;;;1.50;;
37873;SDS011;23709;48.078;11.684;2024-03-23T10:47:10;1.88;;;1.55;;
37873;SDS011;23709;48.078;11.684;2024-03-23T10:49:41;2.58;;;1.60;;
37873;SDS011;23709;48.078;11.684;2024-03-23T10:52:13;2.40;;;1.77;;
37873;SDS011;23709;48.078;11.684;2024-03-23T10:54:45;3.38;;;1.50;;
37873;SDS011;23709;48.078;11.684;2024-03-23T10:57:20;2.65;;;1.30;;
37873;SDS011;23709;48.078;11.684;2024-03-23T10:59:53;4.10;;;1.63;;
37873;SDS011;23709;48.078;11.684;2024-03-23T11:02:25;4.95;;;1.48;;
37873;SDS011;23709;48.078;11.684;2024-03-23T11:04:59;2.60;;;1.67;;
37873;SDS011;23709;48.078;11.684;2024-03-23T11:07:31;3.63;;;1.40;;
37873;SDS011;23709;48.078;11.684;2024-03-23T11:10:03;3.63;;;1.35;;
37873;SDS011;23709;48.078;11.684;2024-03-23T11:13:38;2.10;;;1.50;;
37873;SDS011;23709;48.078;11.684;2024-03-23T11:15:50;1.80;;;1.70;;
37873;SDS011;23709;48.078;11.684;2024-03-23T11:18:22;5.32;;;1.30;;
37873;SDS011;23709;48.078;11.684;2024-03-23T11:20:54;2.83;;;1.40;;
37873;SDS011;23709;48.078;11.684;2024-03-23T11:23:26;3.25;;;1.30;;
37873;SDS011;23709;48.078;11.684;2024-03-23T11:25:58;3.08;;;1.45;;
37873;SDS011;23709;48.078;11.684;2024-03-23T11:28:30;1.80;;;1.10;;
37873;SDS011;23709;48.078;11.684;2024-03-23T11:31:08;3.63;;;1.20;;
37873;SDS011;23709;48.078;11.684;2024-03-23T11:33:40;2.45;;;1.35;;
37873;SDS011;23709;48.078;11.684;2024-03-23T11:36:18;2.00;;;1.50;;
37873;SDS011;23709;48.078;11.684;2024-03-23T11:38:50;3.15;;;1.90;;
37873;SDS011;23709;48.078;11.684;2024-03-23T11:41:21;3.15;;;1.50;;
37873;SDS011;23709;48.078;11.684;2024-03-23T11:43:53;5.38;;;2.47;;
37873;SDS011;23709;48.078;11.684;2024-03-23T11:46:24;6.00;;;1.48;;
37873;SDS011;23709;48.078;11.684;2024-03-23T11:48:58;3.78;;;1.52;;
37873;SDS011;23709;48.078;11.684;2024-03-23T11:51:29;2.55;;;1.83;;
37873;SDS011;23709;48.078;11.684;2024-03-23T11:54:08;3.58;;;1.70;;
37873;SDS011;23709;48.078;11.684;2024-03-23T11:56:40;2.85;;;1.73;;
37873;SDS011;23709;48.078;11.684;2024-03-23T11:59:12;1.90;;;1.48;;
37873;SDS011;23709;48.078;11.684;2024-03-23T12:01:43;3.80;;;1.50;;
37873;SDS011;23709;48.078;11.684;2024-03-23T12:04:24;3.33;;;1.77;;
37873;SDS011;23709;48.078;11.684;2024-03-23T12:07:15;3.58;;;1.58;;
37873;SDS011;23709;48.078;11.684;2024-03-23T12:10:03;3.67;;;1.48;;
37873;SDS011;23709;48.078;11.684;2024-03-23T12:12:35;3.97;;;1.83;;
37873;SDS011;23709;48.078;11.684;2024-03-23T12:15:07;6.35;;;1.98;;
37873;SDS011;23709;48.078;11.684;2024-03-23T12:17:39;2.90;;;1.80;;
37873;SDS011;23709;48.078;11.684;2024-03-23T12:20:14;4.53;;;2.13;;
37873;SDS011;23709;48.078;11.684;2024-03-23T12:22:46;5.32;;;2.17;;
37873;SDS011;23709;48.078;11.684;2024-03-23T12:25:18;5.60;;;2.17;;
37873;SDS011;23709;48.078;11.684;2024-03-23T12:27:49;5.10;;;2.38;;
37873;SDS011;23709;48.078;11.684;2024-03-23T12:30:22;4.82;;;2.13;;
37873;SDS011;23709;48.078;11.684;2024-03-23T12:32:53;9.23;;;2.70;;
37873;SDS011;23709;48.078;11.684;2024-03-23T12:35:25;8.13;;;2.85;;
37873;SDS011;23709;48.078;11.684;2024-03-23T12:37:57;7.95;;;2.67;;
37873;SDS011;23709;48.078;11.684;2024-03-23T12:40:28;6.68;;;2.58;;
37873;SDS011;23709;48.078;11.684;2024-03-23T12:43:00;6.20;;;3.10;;
37873;SDS011;23709;48.078;11.684;2024-03-23T12:45:33;6.28;;;2.67;;
37873;SDS011;23709;48.078;11.684;2024-03-23T12:48:04;3.92;;;2.38;;
37873;SDS011;23709;48.078;11.684;2024-03-23T12:50:36;5.60;;;2.58;;
37873;SDS011;23709;48.078;11.684;2024-03-23T12:53:08;4.72;;;2.65;;
37873;SDS011;23709;48.078;11.684;2024-03-23T12:55:40;7.82;;;3.03;;
37873;SDS011;23709;48.078;11.684;2024-03-23T12:58:11;6.18;;;2.78;;
37873;SDS011;23709;48.078;11.684;2024-03-23T13:00:43;5.85;;;2.60;;
37873;SDS011;23709;48.078;11.684;2024-03-23T13:03:15;11.02;;;2.75;;
37873;SDS011;23709;48.078;11.684;2024-03-23T13:05:51;7.20;;;2.42;;
37873;SDS011;23709;48.078;11.684;2024-03-23T13:08:23;6.35;;;2.55;;
37873;SDS011;23709;48.078;11.684;2024-03-23T13:10:54;7.95;;;3.17;;
37873;SDS011;23709;48.078;11.684;2024-03-23T13:13:26;6.88;;;2.92;;
37873;SDS011;23709;48.078;11.684;2024-03-23T13:15:58;5.72;;;3.47;;
37873;SDS011;23709;48.078;11.684;2024-03-23T13:18:30;6.30;;;3.60;;
37873;SDS011;23709;48.078;11.684;2024-03-23T13:21:02;7.90;;;3.15;;
37873;SDS011;23709;48.078;11.684;2024-03-23T13:23:33;7.90;;;2.83;;
37873;SDS011;23709;48.078;11.684;2024-03-23T13:26:06;7.87;;;3.10;;
37873;SDS011;23709;48.078;11.684;2024-03-23T13:28:38;6.40;;;2.80;;
37873;SDS011;23709;48.078;11.684;2024-03-23T13:31:10;7.47;;;3.13;;
37873;SDS011;23709;48.078;11.684;2024-03-23T13:33:41;7.55;;;2.65;;
37873;SDS011;23709;48.078;11.684;2024-03-23T13:36:15;5.68;;;2.80;;
37873;SDS011;23709;48.078;11.684;2024-03-23T13:38:46;6.13;;;2.85;;
37873;SDS011;23709;48.078;11.684;2024-03-23T13:41:18;4.70;;;2.70;;
37873;SDS011;23709;48.078;11.684;2024-03-23T13:43:50;6.53;;;2.60;;
37873;SDS011;23709;48.078;11.684;2024-03-23T13:46:22;5.18;;;2.47;;
37873;SDS011;23709;48.078;11.684;2024-03-23T13:48:54;5.53;;;2.75;;
37873;SDS011;23709;48.078;11.684;2024-03-23T13:51:26;7.07;;;2.60;;
37873;SDS011;23709;48.078;11.684;2024-03-23T13:56:31;6.57;;;3.08;;
37873;SDS011;23709;48.078;11.684;2024-03-23T13:59:03;7.53;;;2.88;;
37873;SDS011;23709;48.078;11.684;2024-03-23T14:01:35;5.55;;;2.47;;
37873;SDS011;23709;48.078;11.684;2024-03-23T14:04:07;10.18;;;3.10;;
37873;SDS011;23709;48.078;11.684;2024-03-23T14:06:39;7.90;;;2.85;;
37873;SDS011;23709;48.078;11.684;2024-03-23T14:11:44;5.93;;;2.90;;
37873;SDS011;23709;48.078;11.684;2024-03-23T14:14:16;8.13;;;3.28;;
37873;SDS011;23709;48.078;11.684;2024-03-23T14:16:48;15.18;;;4.13;;
37873;SDS011;23709;48.078;11.684;2024-03-23T14:19:21;14.57;;;5.23;;
37873;SDS011;23709;48.078;11.684;2024-03-23T14:21:55;7.70;;;4.00;;
37873;SDS011;23709;48.078;11.684;2024-03-23T14:24:27;6.90;;;3.78;;
37873;SDS011;23709;48.078;11.684;2024-03-23T14:26:59;7.38;;;3.90;;
37873;SDS011;23709;48.078;11.684;2024-03-23T14:29:36;8.82;;;3.83;;
37873;SDS011;23709;48.078;11.684;2024-03-23T14:32:08;8.15;;;4.43;;
37873;SDS011;23709;48.078;11.684;2024-03-23T14:34:39;11.07;;;5.55;;
37873;SDS011;23709;48.078;11.684;2024-03-23T14:37:11;14.90;;;5.97;;
37873;SDS011;23709;48.078;11.684;2024-03-23T14:39:42;14.13;;;6.40;;
37873;SDS011;23709;48.078;11.684;2024-03-23T14:42:15;15.43;;;5.97;;
37873;SDS011;23709;48.078;11.684;2024-03-23T14:44:47;9.82;;;5.15;;
37873;SDS011;23709;48.078;11.684;2024-03-23T14:47:20;12.93;;;5.13;;
37873;SDS011;23709;48.078;11.684;2024-03-23T14:49:51;14.07;;;5.63;;
37873;SDS011;23709;48.078;11.684;2024-03-23T14:52:23;11.18;;;4.97;;
37873;SDS011;23709;48.078;11.684;2024-03-23T14:54:54;10.40;;;4.70;;
37873;SDS011;23709;48.078;11.684;2024-03-23T14:57:27;10.30;;;4.70;;
37873;SDS011;23709;48.078;11.684;2024-03-23T15:00:00;7.60;;;3.75;;
37873;SDS011;23709;48.078;11.684;2024-03-23T15:02:35;12.38;;;4.25;;
37873;SDS011;23709;48.078;11.684;2024-03-23T15:05:07;8.60;;;4.13;;
37873;SDS011;23709;48.078;11.684;2024-03-23T15:07:40;9.68;;;4.15;;
37873;SDS011;23709;48.078;11.684;2024-03-23T15:10:12;6.75;;;3.10;;
37873;SDS011;23709;48.078;11.684;2024-03-23T15:12:44;6.47;;;3.10;;
37873;SDS011;23709;48.078;11.684;2024-03-23T15:15:15;5.43;;;3.28;;
37873;SDS011;23709;48.078;11.684;2024-03-23T15:17:47;7.60;;;3.38;;
37873;SDS011;23709;48.078;11.684;2024-03-23T15:20:19;7.47;;;3.85;;
37873;SDS011;23709;48.078;11.684;2024-03-23T15:22:50;9.88;;;3.78;;
37873;SDS011;23709;48.078;11.684;2024-03-23T15:25:22;10.77;;;4.00;;
37873;SDS011;23709;48.078;11.684;2024-03-23T15:27:54;9.10;;;4.32;;
37873;SDS011;23709;48.078;11.684;2024-03-23T15:30:26;11.20;;;4.30;;
37873;SDS011;23709;48.078;11.684;2024-03-23T15:32:59;11.75;;;4.07;;
37873;SDS011;23709;48.078;11.684;2024-03-23T15:35:32;7.18;;;3.88;;
37873;SDS011;23709;48.078;11.684;2024-03-23T15:38:03;10.15;;;4.32;;
37873;SDS011;23709;48.078;11.684;2024-03-23T15:40:35;13.88;;;5.18;;
37873;SDS011;23709;48.078;11.684;2024-03-23T15:43:07;11.45;;;4.05;;
37873;SDS011;23709;48.078;11.684;2024-03-23T15:45:39;5.88;;;3.25;;
37873;SDS011;23709;48.078;11.684;2024-03-23T15:48:10;12.30;;;4.63;;
37873;SDS011;23709;48.078;11.684;2024-03-23T15:50:49;8.25;;;3.92;;
37873;SDS011;23709;48.078;11.684;2024-03-23T15:53:23;8.45;;;3.80;;
37873;SDS011;23709;48.078;11.684;2024-03-23T15:55:56;10.00;;;3.83;;
37873;SDS011;23709;48.078;11.684;2024-03-23T15:58:28;13.05;;;5.00;;
37873;SDS011;23709;48.078;11.684;2024-03-23T16:01:01;8.23;;;4.37;;
37873;SDS011;23709;48.078;11.684;2024-03-23T16:03:33;9.75;;;3.60;;